createdAt,value
2022-11-20T11:42:18.891Z,122.40
2022-11-20T11:45:07.229Z,115.20
2022-11-20T11:47:43.986Z,463.90
2022-11-20T11:50:23.657Z,168.50
2022-11-20T11:53:02.791Z,249.80
2022-11-20T11:55:47.170Z,99.50
2022-11-20T11:58:38.018Z,92.10
2022-11-20T12:01:34.445Z,83.80
2022-11-20T12:04:14.667Z,146.30
2022-11-20T12:06:46.159Z,119.00
2022-11-20T12:09:14.246Z,84.90
2022-11-20T12:11:50.973Z,81.90
2022-11-20T12:14:27.661Z,64.70
2022-11-20T12:16:57.984Z,55.80
2022-11-20T12:19:29.562Z,160.00
2022-11-20T12:22:08.322Z,62.20
2022-11-20T12:24:45.856Z,62.50
2022-11-20T12:27:21.770Z,44.80
2022-11-20T12:30:04.300Z,60.40
2022-11-20T12:33:09.417Z,75.00
2022-11-20T12:35:49.063Z,74.80
2022-11-20T12:38:33.626Z,114.20
2022-11-20T12:41:46.757Z,100.10
2022-11-20T12:45:01.579Z,99.70
2022-11-20T12:47:51.848Z,52.30
2022-11-20T12:50:53.302Z,48.30
2022-11-20T12:53:48.888Z,121.40
2022-11-20T12:56:30.504Z,73.40
2022-11-20T12:59:30.917Z,39.80
2022-11-20T13:02:14.573Z,43.40
2022-11-20T13:04:51.543Z,39.40
2022-11-20T13:07:23.723Z,37.10
2022-11-20T13:09:52.293Z,50.50
2022-11-20T13:12:44.832Z,31.30
2022-11-20T13:15:35.895Z,53.70
2022-11-20T13:18:06.489Z,53.60
2022-11-20T13:20:36.095Z,105.00
2022-11-20T13:23:04.045Z,86.80
2022-11-20T13:25:33.225Z,59.00
2022-11-20T13:28:26.076Z,94.30
2022-11-20T13:30:55.977Z,79.90
2022-11-20T13:33:36.578Z,85.20
2022-11-20T13:36:22.037Z,89.50
2022-11-20T13:38:56.029Z,60.60
2022-11-20T13:41:36.277Z,70.60
2022-11-20T13:44:09.088Z,66.10
2022-11-20T13:46:45.009Z,55.10
2022-11-20T13:49:27.048Z,48.80
2022-11-20T13:52:21.663Z,49.40
2022-11-20T13:55:13.633Z,53.60
2022-11-20T13:58:05.837Z,71.40
2022-11-20T14:00:34.176Z,53.30
2022-11-20T14:03:50.760Z,45.50
2022-11-20T14:06:32.926Z,69.60
2022-11-20T14:09:01.504Z,74.00
2022-11-20T14:11:31.478Z,63.00
2022-11-20T14:14:06.987Z,61.90
2022-11-20T14:16:37.082Z,58.00
2022-11-20T14:19:29.388Z,41.30
2022-11-20T14:22:15.709Z,43.00
2022-11-20T14:24:43.732Z,56.40
2022-11-20T14:27:20.649Z,67.80
2022-11-20T14:29:51.276Z,65.70
2022-11-20T14:32:21.321Z,106.90
2022-11-20T14:34:51.789Z,184.80
2022-11-20T14:37:24.564Z,149.50
2022-11-20T14:39:55.748Z,132.00
2022-11-20T14:42:26.708Z,108.80
2022-11-20T14:44:58.831Z,63.50
2022-11-20T14:47:31.701Z,54.00
2022-11-20T14:50:05.741Z,83.90
2022-11-20T14:52:36.630Z,130.50
2022-11-20T14:55:05.199Z,138.10
2022-11-20T14:57:35.360Z,132.20
2022-11-20T15:00:06.564Z,125.70
2022-11-20T15:02:35.046Z,120.80
2022-11-20T15:05:06.168Z,124.80
2022-11-20T15:07:37.263Z,115.00
2022-11-20T15:10:07.322Z,119.10
2022-11-20T15:12:39.781Z,128.20
2022-11-20T15:15:13.348Z,126.40
2022-11-20T15:17:41.959Z,110.10
2022-11-20T15:20:14.656Z,116.30
2022-11-20T15:22:42.705Z,119.20
2022-11-20T15:25:18.497Z,124.30
2022-11-20T15:27:50.439Z,104.70
2022-11-20T15:30:20.923Z,102.20
2022-11-20T15:32:49.254Z,89.30
2022-11-20T15:35:17.485Z,61.30
2022-11-20T15:37:45.389Z,45.60
2022-11-20T15:40:13.661Z,32.30
2022-11-20T15:43:01.598Z,30.30
2022-11-20T15:45:34.382Z,49.20
2022-11-20T15:48:03.577Z,66.60
2022-11-20T15:50:39.056Z,93.40
2022-11-20T15:53:06.908Z,104.60
2022-11-20T15:55:34.922Z,99.80
2022-11-20T15:58:02.887Z,107.90
2022-11-20T16:00:31.340Z,109.90
2022-11-20T16:02:59.461Z,109.20
2022-11-20T16:05:30.261Z,95.60
2022-11-20T16:07:58.275Z,87.70
2022-11-20T16:10:26.196Z,77.90
2022-11-20T16:13:12.733Z,74.10
2022-11-20T16:15:46.995Z,97.10
2022-11-20T16:18:21.582Z,82.10
2022-11-20T16:20:55.069Z,91.20
2022-11-20T16:23:23.450Z,157.30
2022-11-20T16:25:51.829Z,190.60
2022-11-20T16:28:19.804Z,129.70
2022-11-20T16:30:47.641Z,118.70
2022-11-20T16:33:20.865Z,131.20
2022-11-20T16:35:48.909Z,127.60
2022-11-20T16:38:16.896Z,150.00
2022-11-20T16:40:44.999Z,142.90
2022-11-20T16:43:14.996Z,136.00
2022-11-20T16:45:44.849Z,176.10
2022-11-20T16:48:15.034Z,146.20
2022-11-20T16:50:51.987Z,99.30
2022-11-20T16:53:21.969Z,99.00
2022-11-20T16:55:49.823Z,97.30
2022-11-20T16:58:18.034Z,107.30
2022-11-20T17:00:51.418Z,110.10
2022-11-20T17:03:21.147Z,109.70
2022-11-20T17:05:49.258Z,110.70
2022-11-20T17:08:17.327Z,109.60
2022-11-20T17:10:45.740Z,106.80
2022-11-20T17:13:14.084Z,109.00
2022-11-20T17:15:42.111Z,105.20
2022-11-20T17:18:10.114Z,100.10
2022-11-20T17:20:38.135Z,162.20
2022-11-20T17:23:06.133Z,259.50
2022-11-20T17:25:34.725Z,187.60
2022-11-20T17:28:02.829Z,116.70
2022-11-20T17:30:30.988Z,155.80
2022-11-20T17:32:59.100Z,133.80
2022-11-20T17:35:26.949Z,124.50
2022-11-20T17:37:55.109Z,118.40
2022-11-20T17:40:27.355Z,129.50
2022-11-20T17:42:55.699Z,120.20
2022-11-20T17:45:23.902Z,110.20
2022-11-20T17:47:51.794Z,105.30
2022-11-20T17:50:19.842Z,99.20
2022-11-20T17:52:47.751Z,94.30
2022-11-20T17:55:15.771Z,245.20
2022-11-20T17:57:52.815Z,432.00
2022-11-20T18:00:21.214Z,310.00
2022-11-20T18:02:49.769Z,156.10
2022-11-20T18:05:17.729Z,163.70
2022-11-20T18:07:45.835Z,145.00
2022-11-20T18:10:13.981Z,112.50
2022-11-20T18:12:41.815Z,99.70
2022-11-20T18:15:09.920Z,108.10
2022-11-20T18:17:37.791Z,93.20
2022-11-20T18:20:27.739Z,93.00
2022-11-20T18:22:54.413Z,93.50
2022-11-20T18:25:22.363Z,126.80
2022-11-20T18:27:50.254Z,106.30
2022-11-20T18:30:18.119Z,147.00
2022-11-20T18:32:45.896Z,148.90
2022-11-20T18:35:13.851Z,126.20
2022-11-20T18:37:41.716Z,115.60
2022-11-20T18:40:10.673Z,135.10
2022-11-20T18:42:57.085Z,125.60
2022-11-20T18:45:25.044Z,124.10
2022-11-20T18:47:52.923Z,146.40
2022-11-20T18:50:20.775Z,115.10
2022-11-20T18:52:48.710Z,117.50
2022-11-20T18:55:16.562Z,136.60
2022-11-20T18:57:44.525Z,145.70
2022-11-20T19:00:13.230Z,190.70
2022-11-20T19:02:43.320Z,134.00
2022-11-20T19:05:14.047Z,117.60
2022-11-20T19:07:43.008Z,109.80
2022-11-20T19:10:11.274Z,101.70
2022-11-20T19:12:39.260Z,102.20
2022-11-20T19:15:07.865Z,102.30
2022-11-20T19:17:35.818Z,107.10
2022-11-20T19:20:03.907Z,117.50
2022-11-20T19:22:31.805Z,152.50
2022-11-20T19:25:00.117Z,123.60
2022-11-20T19:27:27.991Z,120.10
2022-11-20T19:30:03.550Z,115.80
2022-11-20T19:35:01.221Z,114.00
2022-11-20T19:37:29.145Z,114.50
2022-11-20T19:39:59.641Z,107.70
2022-11-20T19:42:27.574Z,108.80
2022-11-20T19:44:55.507Z,115.50
2022-11-20T19:47:35.368Z,182.30
2022-11-20T19:50:11.673Z,217.40
2022-11-20T19:52:39.473Z,184.40
2022-11-20T19:55:07.768Z,126.30
2022-11-20T19:57:35.892Z,450.80
2022-11-20T20:00:04.261Z,351.10
2022-11-20T20:02:32.901Z,159.70
2022-11-20T20:05:00.875Z,246.60
2022-11-20T20:07:28.826Z,143.60
2022-11-20T20:09:56.816Z,162.40
2022-11-20T20:12:24.785Z,183.20
2022-11-20T20:14:52.587Z,139.00
2022-11-20T20:17:20.681Z,177.60
2022-11-20T20:19:48.591Z,151.90
2022-11-20T20:22:16.459Z,194.00
2022-11-20T20:24:44.251Z,119.80
2022-11-20T20:27:12.126Z,192.00
2022-11-20T20:29:39.959Z,104.30
2022-11-20T20:32:07.826Z,180.30
2022-11-20T20:34:35.704Z,108.50
2022-11-20T20:37:05.346Z,97.70
2022-11-20T20:39:33.411Z,64.00
2022-11-20T20:42:01.259Z,61.40
2022-11-20T20:44:47.792Z,59.00
2022-11-20T20:47:15.640Z,59.50
2022-11-20T20:49:43.530Z,50.50
2022-11-20T20:52:11.499Z,46.60
2022-11-20T20:54:42.024Z,48.70
2022-11-20T20:57:09.852Z,122.50
2022-11-20T20:59:37.664Z,51.10
2022-11-20T21:02:05.740Z,87.40
2022-11-20T21:04:34.169Z,64.10
2022-11-20T21:07:02.110Z,93.50
2022-11-20T21:09:30.106Z,96.60
2022-11-20T21:11:58.045Z,71.60
2022-11-20T21:14:26.020Z,74.90
2022-11-20T21:16:54.451Z,57.00
2022-11-20T21:19:22.600Z,82.10
2022-11-20T21:21:59.289Z,87.30
2022-11-20T21:24:28.819Z,64.00
2022-11-20T21:26:57.545Z,80.20
2022-11-20T21:29:27.589Z,55.70
2022-11-20T21:31:56.513Z,49.20
2022-11-20T21:34:25.598Z,47.10
2022-11-20T21:36:53.844Z,53.10
2022-11-20T21:39:22.175Z,49.90
2022-11-20T21:41:50.125Z,47.40
2022-11-20T21:44:33.317Z,51.50
2022-11-20T21:47:01.211Z,62.10
2022-11-20T21:49:29.124Z,74.90
2022-11-20T21:51:57.241Z,49.20
2022-11-20T21:54:25.520Z,38.00
2022-11-20T21:56:53.671Z,40.20
2022-11-20T21:59:22.322Z,35.20
2022-11-20T22:01:50.348Z,38.50
2022-11-20T22:04:18.327Z,42.00
2022-11-20T22:06:46.285Z,39.00
2022-11-20T22:09:14.159Z,38.60
2022-11-20T22:11:42.013Z,40.10
2022-11-20T22:14:23.764Z,40.90
2022-11-20T22:16:53.794Z,36.00
2022-11-20T22:19:22.852Z,36.20
2022-11-20T22:21:51.205Z,37.90
2022-11-20T22:24:22.491Z,38.00
2022-11-20T22:26:51.139Z,38.60
2022-11-20T22:29:21.305Z,39.30
2022-11-20T22:31:52.452Z,40.20
2022-11-20T22:34:20.795Z,41.00
2022-11-20T22:36:50.005Z,42.80
2022-11-20T22:39:17.834Z,42.10
2022-11-20T22:41:45.761Z,41.80
2022-11-20T22:44:14.452Z,42.30
2022-11-20T22:46:42.988Z,40.50
2022-11-20T22:49:11.107Z,41.80
2022-11-20T22:51:41.143Z,40.80
2022-11-20T22:54:12.026Z,41.70
2022-11-20T22:56:41.314Z,40.80
2022-11-20T22:59:09.314Z,39.20
2022-11-20T23:01:38.542Z,38.80
2022-11-20T23:04:09.952Z,38.20
2022-11-20T23:06:38.369Z,38.90
2022-11-20T23:09:07.414Z,36.20
2022-11-20T23:11:36.103Z,38.50
2022-11-20T23:14:07.068Z,42.70
2022-11-20T23:16:35.822Z,44.40
2022-11-20T23:19:09.119Z,47.00
2022-11-20T23:21:38.621Z,49.40
2022-11-20T23:24:07.724Z,50.10
2022-11-20T23:26:37.856Z,48.30
2022-11-20T23:29:06.706Z,49.20
2022-11-20T23:31:36.144Z,56.20
2022-11-20T23:34:05.186Z,53.00
2022-11-20T23:36:33.114Z,49.20
2022-11-20T23:39:01.176Z,40.80
2022-11-20T23:41:28.951Z,40.90
2022-11-20T23:43:56.855Z,38.90
2022-11-20T23:46:24.880Z,38.80
2022-11-20T23:48:52.631Z,43.10
2022-11-20T23:51:20.708Z,46.00
2022-11-20T23:53:48.585Z,48.40
2022-11-20T23:56:16.539Z,47.10
2022-11-20T23:58:44.525Z,44.50
